sensor_id;sensor_type;location;lat;lon;timestamp;P1;durP1;ratioP1;P2;durP2;ratioP2
61250;SDS011;47126;47.508;8.590;2023-04-03T00:01:38;10.00;;;5.13;;
61250;SDS011;47126;47.508;8.590;2023-04-03T00:04:05;9.45;;;5.35;;
61250;SDS011;47126;47.508;8.590;2023-04-03T00:06:32;10.88;;;5.07;;
61250;SDS011;47126;47.508;8.590;2023-04-03T00:08:58;9.30;;;4.80;;
61250;SDS011;47126;47.508;8.590;2023-04-03T00:11:24;10.05;;;5.53;;
61250;SDS011;47126;47.508;8.590;2023-04-03T00:13:53;10.18;;;4.93;;
61250;SDS011;47126;47.508;8.590;2023-04-03T00:16:19;9.65;;;4.82;;
61250;SDS011;47126;47.508;8.590;2023-04-03T00:18:45;9.32;;;4.40;;
61250;SDS011;47126;47.508;8.590;2023-04-03T00:21:12;9.95;;;5.18;;
61250;SDS011;47126;47.508;8.590;2023-04-03T00:23:41;8.23;;;4.32;;
61250;SDS011;47126;47.508;8.590;2023-04-03T00:26:08;9.18;;;5.10;;
61250;SDS011;47126;47.508;8.590;2023-04-03T00:28:34;10.00;;;4.90;;
61250;SDS011;47126;47.508;8.590;2023-04-03T00:31:00;13.32;;;5.72;;
61250;SDS011;47126;47.508;8.590;2023-04-03T00:33:26;10.40;;;5.93;;
61250;SDS011;47126;47.508;8.590;2023-04-03T00:36:04;9.93;;;5.18;;
61250;SDS011;47126;47.508;8.590;2023-04-03T00:40:57;9.60;;;4.63;;
61250;SDS011;47126;47.508;8.590;2023-04-03T00:43:24;8.15;;;4.13;;
61250;SDS011;47126;47.508;8.590;2023-04-03T00:45:52;10.07;;;4.57;;
61250;SDS011;47126;47.508;8.590;2023-04-03T00:48:20;10.07;;;4.28;;
61250;SDS011;47126;47.508;8.590;2023-04-03T00:50:46;8.80;;;4.68;;
61250;SDS011;47126;47.508;8.590;2023-04-03T00:53:14;10.50;;;5.35;;
61250;SDS011;47126;47.508;8.590;2023-04-03T00:55:41;11.55;;;6.28;;
61250;SDS011;47126;47.508;8.590;2023-04-03T00:58:07;10.55;;;5.72;;
61250;SDS011;47126;47.508;8.590;2023-04-03T01:00:35;12.82;;;6.43;;
61250;SDS011;47126;47.508;8.590;2023-04-03T01:03:01;14.25;;;7.43;;
61250;SDS011;47126;47.508;8.590;2023-04-03T01:05:27;14.02;;;6.57;;
61250;SDS011;47126;47.508;8.590;2023-04-03T01:07:53;13.23;;;6.97;;
61250;SDS011;47126;47.508;8.590;2023-04-03T01:10:20;13.05;;;7.07;;
61250;SDS011;47126;47.508;8.590;2023-04-03T01:12:48;12.55;;;6.55;;
61250;SDS011;47126;47.508;8.590;2023-04-03T01:15:16;14.35;;;7.45;;
61250;SDS011;47126;47.508;8.590;2023-04-03T01:17:50;12.77;;;6.95;;
61250;SDS011;47126;47.508;8.590;2023-04-03T01:25:17;14.45;;;8.73;;
61250;SDS011;47126;47.508;8.590;2023-04-03T01:27:43;13.93;;;7.30;;
61250;SDS011;47126;47.508;8.590;2023-04-03T01:30:10;14.30;;;7.50;;
61250;SDS011;47126;47.508;8.590;2023-04-03T01:32:36;13.18;;;7.32;;
61250;SDS011;47126;47.508;8.590;2023-04-03T01:35:02;14.00;;;7.15;;
61250;SDS011;47126;47.508;8.590;2023-04-03T01:37:29;14.52;;;7.95;;
61250;SDS011;47126;47.508;8.590;2023-04-03T01:39:55;13.70;;;7.53;;
61250;SDS011;47126;47.508;8.590;2023-04-03T01:42:23;12.35;;;7.20;;
61250;SDS011;47126;47.508;8.590;2023-04-03T01:44:49;14.18;;;8.35;;
61250;SDS011;47126;47.508;8.590;2023-04-03T01:47:15;13.82;;;7.45;;
61250;SDS011;47126;47.508;8.590;2023-04-03T01:49:41;14.15;;;7.43;;
61250;SDS011;47126;47.508;8.590;2023-04-03T01:52:07;16.48;;;8.43;;
61250;SDS011;47126;47.508;8.590;2023-04-03T01:54:36;17.77;;;9.20;;
61250;SDS011;47126;47.508;8.590;2023-04-03T01:57:02;17.60;;;9.15;;
61250;SDS011;47126;47.508;8.590;2023-04-03T01:59:28;17.73;;;8.57;;
61250;SDS011;47126;47.508;8.590;2023-04-03T02:01:54;14.88;;;8.35;;
61250;SDS011;47126;47.508;8.590;2023-04-03T02:04:20;15.05;;;8.30;;
61250;SDS011;47126;47.508;8.590;2023-04-03T02:06:46;17.48;;;8.65;;
61250;SDS011;47126;47.508;8.590;2023-04-03T02:09:12;15.88;;;8.25;;
61250;SDS011;47126;47.508;8.590;2023-04-03T02:11:38;15.30;;;8.18;;
61250;SDS011;47126;47.508;8.590;2023-04-03T02:14:04;13.93;;;7.88;;
61250;SDS011;47126;47.508;8.590;2023-04-03T02:16:31;14.38;;;7.85;;
61250;SDS011;47126;47.508;8.590;2023-04-03T02:18:57;13.35;;;7.68;;
61250;SDS011;47126;47.508;8.590;2023-04-03T02:21:23;14.05;;;7.75;;
61250;SDS011;47126;47.508;8.590;2023-04-03T02:23:49;12.88;;;7.13;;
61250;SDS011;47126;47.508;8.590;2023-04-03T02:26:16;14.95;;;7.97;;
61250;SDS011;47126;47.508;8.590;2023-04-03T02:28:42;13.77;;;7.47;;
61250;SDS011;47126;47.508;8.590;2023-04-03T02:31:09;14.75;;;7.38;;
61250;SDS011;47126;47.508;8.590;2023-04-03T02:33:35;12.77;;;7.18;;
61250;SDS011;47126;47.508;8.590;2023-04-03T02:36:02;12.10;;;6.32;;
61250;SDS011;47126;47.508;8.590;2023-04-03T02:38:29;9.98;;;5.57;;
61250;SDS011;47126;47.508;8.590;2023-04-03T02:41:05;8.75;;;4.93;;
61250;SDS011;47126;47.508;8.590;2023-04-03T02:43:32;10.00;;;5.35;;
61250;SDS011;47126;47.508;8.590;2023-04-03T02:45:58;9.43;;;5.18;;
61250;SDS011;47126;47.508;8.590;2023-04-03T02:48:24;10.30;;;6.03;;
61250;SDS011;47126;47.508;8.590;2023-04-03T02:50:50;10.40;;;5.97;;
61250;SDS011;47126;47.508;8.590;2023-04-03T02:53:20;10.20;;;5.95;;
61250;SDS011;47126;47.508;8.590;2023-04-03T02:55:48;12.35;;;5.90;;
61250;SDS011;47126;47.508;8.590;2023-04-03T02:58:15;12.60;;;6.72;;
61250;SDS011;47126;47.508;8.590;2023-04-03T03:00:41;12.63;;;7.03;;
61250;SDS011;47126;47.508;8.590;2023-04-03T03:03:07;13.65;;;6.55;;
61250;SDS011;47126;47.508;8.590;2023-04-03T03:05:33;13.20;;;7.28;;
61250;SDS011;47126;47.508;8.590;2023-04-03T03:07:59;12.55;;;6.55;;
61250;SDS011;47126;47.508;8.590;2023-04-03T03:10:25;12.40;;;6.30;;
61250;SDS011;47126;47.508;8.590;2023-04-03T03:12:51;11.52;;;6.25;;
61250;SDS011;47126;47.508;8.590;2023-04-03T03:15:18;12.07;;;6.60;;
61250;SDS011;47126;47.508;8.590;2023-04-03T03:17:44;12.70;;;6.75;;
61250;SDS011;47126;47.508;8.590;2023-04-03T03:20:10;13.40;;;7.38;;
61250;SDS011;47126;47.508;8.590;2023-04-03T03:22:39;15.10;;;7.00;;
61250;SDS011;47126;47.508;8.590;2023-04-03T03:25:05;12.50;;;6.80;;
61250;SDS011;47126;47.508;8.590;2023-04-03T03:27:31;11.93;;;6.88;;
61250;SDS011;47126;47.508;8.590;2023-04-03T03:29:57;12.20;;;6.60;;
61250;SDS011;47126;47.508;8.590;2023-04-03T03:32:23;14.30;;;7.78;;
61250;SDS011;47126;47.508;8.590;2023-04-03T03:34:49;13.38;;;6.80;;
61250;SDS011;47126;47.508;8.590;2023-04-03T03:37:16;14.57;;;7.40;;
61250;SDS011;47126;47.508;8.590;2023-04-03T03:39:42;12.52;;;6.72;;
61250;SDS011;47126;47.508;8.590;2023-04-03T03:42:08;13.68;;;7.07;;
61250;SDS011;47126;47.508;8.590;2023-04-03T03:44:34;12.57;;;5.60;;
61250;SDS011;47126;47.508;8.590;2023-04-03T03:47:00;13.48;;;7.25;;
61250;SDS011;47126;47.508;8.590;2023-04-03T03:49:26;10.60;;;6.32;;
61250;SDS011;47126;47.508;8.590;2023-04-03T03:51:52;10.55;;;5.82;;
61250;SDS011;47126;47.508;8.590;2023-04-03T03:54:18;10.02;;;5.88;;
61250;SDS011;47126;47.508;8.590;2023-04-03T03:56:44;12.00;;;6.57;;
61250;SDS011;47126;47.508;8.590;2023-04-03T03:59:11;11.38;;;6.40;;
61250;SDS011;47126;47.508;8.590;2023-04-03T04:01:37;10.70;;;5.82;;
61250;SDS011;47126;47.508;8.590;2023-04-03T04:04:03;16.02;;;6.78;;
61250;SDS011;47126;47.508;8.590;2023-04-03T04:06:29;12.80;;;6.65;;
61250;SDS011;47126;47.508;8.590;2023-04-03T04:08:55;13.32;;;7.55;;
61250;SDS011;47126;47.508;8.590;2023-04-03T04:11:22;11.65;;;6.68;;
61250;SDS011;47126;47.508;8.590;2023-04-03T04:13:48;12.57;;;7.10;;
61250;SDS011;47126;47.508;8.590;2023-04-03T04:16:14;14.25;;;6.97;;
61250;SDS011;47126;47.508;8.590;2023-04-03T04:18:40;13.52;;;7.20;;
61250;SDS011;47126;47.508;8.590;2023-04-03T04:21:06;11.75;;;6.43;;
61250;SDS011;47126;47.508;8.590;2023-04-03T04:23:32;15.80;;;6.93;;
61250;SDS011;47126;47.508;8.590;2023-04-03T04:25:58;14.93;;;7.47;;
61250;SDS011;47126;47.508;8.590;2023-04-03T04:28:24;11.77;;;6.28;;
61250;SDS011;47126;47.508;8.590;2023-04-03T04:30:50;11.75;;;6.45;;
61250;SDS011;47126;47.508;8.590;2023-04-03T04:33:16;10.93;;;6.35;;
61250;SDS011;47126;47.508;8.590;2023-04-03T04:35:42;12.70;;;6.60;;
61250;SDS011;47126;47.508;8.590;2023-04-03T04:38:17;9.57;;;5.68;;
61250;SDS011;47126;47.508;8.590;2023-04-03T04:40:47;11.13;;;6.18;;
61250;SDS011;47126;47.508;8.590;2023-04-03T04:43:14;11.48;;;6.55;;
61250;SDS011;47126;47.508;8.590;2023-04-03T04:45:40;10.77;;;5.78;;
61250;SDS011;47126;47.508;8.590;2023-04-03T04:48:11;11.98;;;6.05;;
61250;SDS011;47126;47.508;8.590;2023-04-03T04:50:41;10.95;;;6.07;;
61250;SDS011;47126;47.508;8.590;2023-04-03T04:53:14;11.38;;;5.93;;
61250;SDS011;47126;47.508;8.590;2023-04-03T04:55:40;10.38;;;5.13;;
61250;SDS011;47126;47.508;8.590;2023-04-03T04:58:06;11.05;;;6.10;;
61250;SDS011;47126;47.508;8.590;2023-04-03T05:00:32;11.77;;;5.65;;
61250;SDS011;47126;47.508;8.590;2023-04-03T05:02:59;10.82;;;5.25;;
61250;SDS011;47126;47.508;8.590;2023-04-03T05:05:25;11.43;;;6.05;;
61250;SDS011;47126;47.508;8.590;2023-04-03T05:07:51;11.32;;;5.95;;
61250;SDS011;47126;47.508;8.590;2023-04-03T05:10:17;9.75;;;5.38;;
61250;SDS011;47126;47.508;8.590;2023-04-03T05:13:01;10.63;;;6.18;;
61250;SDS011;47126;47.508;8.590;2023-04-03T05:15:27;10.48;;;5.68;;
61250;SDS011;47126;47.508;8.590;2023-04-03T05:17:53;12.63;;;6.47;;
61250;SDS011;47126;47.508;8.590;2023-04-03T05:20:19;10.88;;;5.82;;
61250;SDS011;47126;47.508;8.590;2023-04-03T05:22:52;12.52;;;5.82;;
61250;SDS011;47126;47.508;8.590;2023-04-03T05:25:27;11.77;;;6.25;;
61250;SDS011;47126;47.508;8.590;2023-04-03T05:31:08;11.27;;;5.72;;
61250;SDS011;47126;47.508;8.590;2023-04-03T05:33:43;10.18;;;5.15;;
61250;SDS011;47126;47.508;8.590;2023-04-03T05:36:11;10.10;;;5.38;;
61250;SDS011;47126;47.508;8.590;2023-04-03T05:38:38;9.93;;;5.57;;
61250;SDS011;47126;47.508;8.590;2023-04-03T05:41:04;11.20;;;5.43;;
61250;SDS011;47126;47.508;8.590;2023-04-03T05:43:30;10.30;;;5.22;;
61250;SDS011;47126;47.508;8.590;2023-04-03T05:45:59;10.38;;;4.90;;
61250;SDS011;47126;47.508;8.590;2023-04-03T05:48:25;10.27;;;4.93;;
61250;SDS011;47126;47.508;8.590;2023-04-03T05:50:51;8.82;;;4.45;;
61250;SDS011;47126;47.508;8.590;2023-04-03T05:53:21;7.50;;;4.63;;
61250;SDS011;47126;47.508;8.590;2023-04-03T05:55:47;8.48;;;4.78;;
61250;SDS011;47126;47.508;8.590;2023-04-03T05:58:14;10.48;;;4.88;;
61250;SDS011;47126;47.508;8.590;2023-04-03T06:00:40;9.25;;;5.00;;
61250;SDS011;47126;47.508;8.590;2023-04-03T06:03:06;9.25;;;5.30;;
61250;SDS011;47126;47.508;8.590;2023-04-03T06:05:32;8.75;;;4.55;;
61250;SDS011;47126;47.508;8.590;2023-04-03T06:08:00;8.23;;;4.53;;
61250;SDS011;47126;47.508;8.590;2023-04-03T06:10:34;10.35;;;5.20;;
61250;SDS011;47126;47.508;8.590;2023-04-03T06:13:00;8.57;;;4.72;;
61250;SDS011;47126;47.508;8.590;2023-04-03T06:15:26;8.40;;;4.38;;
61250;SDS011;47126;47.508;8.590;2023-04-03T06:17:53;8.63;;;4.70;;
61250;SDS011;47126;47.508;8.590;2023-04-03T06:20:19;11.05;;;4.88;;
61250;SDS011;47126;47.508;8.590;2023-04-03T06:22:45;9.63;;;4.72;;
61250;SDS011;47126;47.508;8.590;2023-04-03T06:25:21;10.70;;;4.63;;
61250;SDS011;47126;47.508;8.590;2023-04-03T06:27:47;8.30;;;4.88;;
61250;SDS011;47126;47.508;8.590;2023-04-03T06:30:31;9.20;;;4.40;;
61250;SDS011;47126;47.508;8.590;2023-04-03T06:33:07;8.40;;;4.45;;
61250;SDS011;47126;47.508;8.590;2023-04-03T06:35:33;7.28;;;3.88;;
61250;SDS011;47126;47.508;8.590;2023-04-03T06:38:00;9.95;;;4.30;;
61250;SDS011;47126;47.508;8.590;2023-04-03T06:40:26;10.75;;;4.47;;
61250;SDS011;47126;47.508;8.590;2023-04-03T06:42:52;7.95;;;4.18;;
61250;SDS011;47126;47.508;8.590;2023-04-03T06:45:23;7.75;;;3.78;;
61250;SDS011;47126;47.508;8.590;2023-04-03T06:47:50;7.57;;;3.97;;
61250;SDS011;47126;47.508;8.590;2023-04-03T06:50:19;7.80;;;4.13;;
61250;SDS011;47126;47.508;8.590;2023-04-03T06:52:54;9.88;;;4.65;;
61250;SDS011;47126;47.508;8.590;2023-04-03T06:55:20;7.88;;;4.15;;
61250;SDS011;47126;47.508;8.590;2023-04-03T06:57:46;8.50;;;3.85;;
61250;SDS011;47126;47.508;8.590;2023-04-03T07:00:15;8.07;;;4.25;;
61250;SDS011;47126;47.508;8.590;2023-04-03T07:02:41;8.48;;;4.38;;
61250;SDS011;47126;47.508;8.590;2023-04-03T07:05:10;6.85;;;3.90;;
61250;SDS011;47126;47.508;8.590;2023-04-03T07:07:47;6.80;;;3.65;;
61250;SDS011;47126;47.508;8.590;2023-04-03T07:10:14;7.75;;;4.18;;
61250;SDS011;47126;47.508;8.590;2023-04-03T07:12:44;6.63;;;3.72;;
61250;SDS011;47126;47.508;8.590;2023-04-03T07:15:13;6.03;;;3.63;;
61250;SDS011;47126;47.508;8.590;2023-04-03T07:17:42;7.78;;;3.88;;
61250;SDS011;47126;47.508;8.590;2023-04-03T07:20:09;5.22;;;3.25;;
61250;SDS011;47126;47.508;8.590;2023-04-03T07:22:44;8.43;;;4.38;;
61250;SDS011;47126;47.508;8.590;2023-04-03T07:25:10;6.28;;;3.58;;
61250;SDS011;47126;47.508;8.590;2023-04-03T07:27:40;8.63;;;3.63;;
61250;SDS011;47126;47.508;8.590;2023-04-03T07:30:06;5.85;;;3.25;;
61250;SDS011;47126;47.508;8.590;2023-04-03T07:32:32;6.13;;;3.50;;
61250;SDS011;47126;47.508;8.590;2023-04-03T07:34:58;8.65;;;4.03;;
61250;SDS011;47126;47.508;8.590;2023-04-03T07:37:24;7.35;;;3.50;;
61250;SDS011;47126;47.508;8.590;2023-04-03T07:39:51;15.80;;;7.60;;
61250;SDS011;47126;47.508;8.590;2023-04-03T07:42:20;6.32;;;3.88;;
61250;SDS011;47126;47.508;8.590;2023-04-03T07:47:18;5.60;;;3.20;;
61250;SDS011;47126;47.508;8.590;2023-04-03T07:49:45;5.53;;;3.10;;
61250;SDS011;47126;47.508;8.590;2023-04-03T07:52:12;7.97;;;3.40;;
61250;SDS011;47126;47.508;8.590;2023-04-03T07:54:40;5.05;;;2.92;;
61250;SDS011;47126;47.508;8.590;2023-04-03T07:57:06;9.32;;;3.53;;
61250;SDS011;47126;47.508;8.590;2023-04-03T07:59:32;5.10;;;2.95;;
61250;SDS011;47126;47.508;8.590;2023-04-03T08:02:01;9.23;;;3.15;;
61250;SDS011;47126;47.508;8.590;2023-04-03T08:04:29;5.53;;;3.38;;
61250;SDS011;47126;47.508;8.590;2023-04-03T08:06:55;6.03;;;3.60;;
61250;SDS011;47126;47.508;8.590;2023-04-03T08:09:22;6.93;;;3.33;;
61250;SDS011;47126;47.508;8.590;2023-04-03T08:11:50;5.25;;;3.20;;
61250;SDS011;47126;47.508;8.590;2023-04-03T08:14:18;6.80;;;3.15;;
61250;SDS011;47126;47.508;8.590;2023-04-03T08:16:45;7.57;;;3.13;;
61250;SDS011;47126;47.508;8.590;2023-04-03T08:19:11;7.97;;;3.38;;
61250;SDS011;47126;47.508;8.590;2023-04-03T08:21:40;5.68;;;3.33;;
61250;SDS011;47126;47.508;8.590;2023-04-03T08:24:08;5.85;;;2.85;;
61250;SDS011;47126;47.508;8.590;2023-04-03T08:26:35;6.32;;;3.45;;
61250;SDS011;47126;47.508;8.590;2023-04-03T08:29:01;4.88;;;2.75;;
61250;SDS011;47126;47.508;8.590;2023-04-03T08:31:30;8.63;;;3.47;;
61250;SDS011;47126;47.508;8.590;2023-04-03T08:33:57;7.30;;;3.30;;
61250;SDS011;47126;47.508;8.590;2023-04-03T08:36:26;4.63;;;2.75;;
61250;SDS011;47126;47.508;8.590;2023-04-03T08:38:53;5.70;;;3.10;;
61250;SDS011;47126;47.508;8.590;2023-04-03T08:49:40;7.55;;;3.15;;
61250;SDS011;47126;47.508;8.590;2023-04-03T08:52:30;6.75;;;3.15;;
61250;SDS011;47126;47.508;8.590;2023-04-03T08:54:58;6.15;;;3.38;;
61250;SDS011;47126;47.508;8.590;2023-04-03T08:57:36;8.45;;;3.40;;
61250;SDS011;47126;47.508;8.590;2023-04-03T09:00:25;5.30;;;3.00;;
61250;SDS011;47126;47.508;8.590;2023-04-03T09:02:51;6.82;;;3.42;;
61250;SDS011;47126;47.508;8.590;2023-04-03T09:05:19;5.13;;;3.15;;
61250;SDS011;47126;47.508;8.590;2023-04-03T09:07:50;5.55;;;3.10;;
61250;SDS011;47126;47.508;8.590;2023-04-03T09:10:32;5.65;;;2.95;;
61250;SDS011;47126;47.508;8.590;2023-04-03T09:15:54;9.98;;;3.55;;
61250;SDS011;47126;47.508;8.590;2023-04-03T09:18:23;27.90;;;11.38;;
61250;SDS011;47126;47.508;8.590;2023-04-03T09:23:34;17.77;;;9.32;;
61250;SDS011;47126;47.508;8.590;2023-04-03T09:29:43;5.25;;;3.13;;
61250;SDS011;47126;47.508;8.590;2023-04-03T09:34:55;4.70;;;2.70;;
61250;SDS011;47126;47.508;8.590;2023-04-03T09:37:38;6.53;;;3.10;;
61250;SDS011;47126;47.508;8.590;2023-04-03T09:40:11;7.60;;;3.25;;
61250;SDS011;47126;47.508;8.590;2023-04-03T09:43:01;6.00;;;3.30;;
61250;SDS011;47126;47.508;8.590;2023-04-03T09:45:30;6.47;;;3.28;;
61250;SDS011;47126;47.508;8.590;2023-04-03T09:48:12;7.18;;;2.97;;
61250;SDS011;47126;47.508;8.590;2023-04-03T09:51:02;6.97;;;3.55;;
61250;SDS011;47126;47.508;8.590;2023-04-03T09:53:32;5.38;;;2.78;;
61250;SDS011;47126;47.508;8.590;2023-04-03T09:56:02;5.20;;;3.08;;
61250;SDS011;47126;47.508;8.590;2023-04-03T09:58:29;6.50;;;3.30;;
61250;SDS011;47126;47.508;8.590;2023-04-03T10:00:59;6.18;;;3.15;;
61250;SDS011;47126;47.508;8.590;2023-04-03T10:03:28;4.35;;;2.72;;
61250;SDS011;47126;47.508;8.590;2023-04-03T10:05:57;6.00;;;3.42;;
61250;SDS011;47126;47.508;8.590;2023-04-03T10:08:28;6.25;;;3.50;;
61250;SDS011;47126;47.508;8.590;2023-04-03T10:13:52;5.60;;;2.92;;
61250;SDS011;47126;47.508;8.590;2023-04-03T10:19:09;6.90;;;3.58;;
61250;SDS011;47126;47.508;8.590;2023-04-03T10:21:54;6.18;;;3.45;;
61250;SDS011;47126;47.508;8.590;2023-04-03T10:27:13;5.95;;;3.50;;
61250;SDS011;47126;47.508;8.590;2023-04-03T10:34:42;7.57;;;3.85;;
61250;SDS011;47126;47.508;8.590;2023-04-03T10:42:23;9.30;;;3.92;;
61250;SDS011;47126;47.508;8.590;2023-04-03T10:52:47;5.80;;;3.60;;
61250;SDS011;47126;47.508;8.590;2023-04-03T10:57:47;6.20;;;3.42;;
61250;SDS011;47126;47.508;8.590;2023-04-03T11:00:18;7.60;;;3.92;;
61250;SDS011;47126;47.508;8.590;2023-04-03T11:02:55;6.85;;;3.92;;
61250;SDS011;47126;47.508;8.590;2023-04-03T11:05:34;8.07;;;4.20;;
61250;SDS011;47126;47.508;8.590;2023-04-03T11:08:02;6.60;;;3.95;;
61250;SDS011;47126;47.508;8.590;2023-04-03T11:10:38;9.82;;;4.05;;
61250;SDS011;47126;47.508;8.590;2023-04-03T11:13:08;8.05;;;3.83;;
61250;SDS011;47126;47.508;8.590;2023-04-03T11:15:37;6.28;;;3.75;;
61250;SDS011;47126;47.508;8.590;2023-04-03T11:18:06;6.80;;;3.90;;
61250;SDS011;47126;47.508;8.590;2023-04-03T11:20:33;7.55;;;3.85;;
61250;SDS011;47126;47.508;8.590;2023-04-03T11:23:08;6.72;;;3.63;;
61250;SDS011;47126;47.508;8.590;2023-04-03T11:25:39;6.90;;;4.10;;
61250;SDS011;47126;47.508;8.590;2023-04-03T11:28:11;6.53;;;3.60;;
61250;SDS011;47126;47.508;8.590;2023-04-03T11:30:39;6.93;;;4.07;;
61250;SDS011;47126;47.508;8.590;2023-04-03T11:33:15;8.43;;;4.00;;
61250;SDS011;47126;47.508;8.590;2023-04-03T11:35:45;7.15;;;3.92;;
61250;SDS011;47126;47.508;8.590;2023-04-03T11:38:21;9.13;;;4.25;;
61250;SDS011;47126;47.508;8.590;2023-04-03T11:40:48;7.35;;;3.92;;
61250;SDS011;47126;47.508;8.590;2023-04-03T11:43:22;6.05;;;3.92;;
61250;SDS011;47126;47.508;8.590;2023-04-03T11:50:46;7.78;;;3.85;;
61250;SDS011;47126;47.508;8.590;2023-04-03T11:58:16;6.53;;;3.65;;
61250;SDS011;47126;47.508;8.590;2023-04-03T12:00:56;9.50;;;4.03;;
61250;SDS011;47126;47.508;8.590;2023-04-03T12:05:53;7.22;;;4.05;;
61250;SDS011;47126;47.508;8.590;2023-04-03T12:13:42;5.97;;;3.63;;
61250;SDS011;47126;47.508;8.590;2023-04-03T12:26:46;8.18;;;4.30;;
61250;SDS011;47126;47.508;8.590;2023-04-03T12:29:27;8.65;;;3.40;;
61250;SDS011;47126;47.508;8.590;2023-04-03T12:37:23;7.20;;;3.90;;
61250;SDS011;47126;47.508;8.590;2023-04-03T12:47:36;9.18;;;4.30;;
61250;SDS011;47126;47.508;8.590;2023-04-03T12:50:05;9.32;;;4.85;;
61250;SDS011;47126;47.508;8.590;2023-04-03T12:52:42;8.80;;;4.32;;
61250;SDS011;47126;47.508;8.590;2023-04-03T12:55:16;7.35;;;4.43;;
61250;SDS011;47126;47.508;8.590;2023-04-03T12:57:43;7.63;;;4.40;;
61250;SDS011;47126;47.508;8.590;2023-04-03T13:00:29;6.10;;;3.78;;
61250;SDS011;47126;47.508;8.590;2023-04-03T13:02:57;9.57;;;4.80;;
61250;SDS011;47126;47.508;8.590;2023-04-03T13:05:23;8.10;;;4.40;;
61250;SDS011;47126;47.508;8.590;2023-04-03T13:08:00;6.97;;;4.07;;
61250;SDS011;47126;47.508;8.590;2023-04-03T13:10:30;8.30;;;4.13;;
61250;SDS011;47126;47.508;8.590;2023-04-03T13:12:58;21.70;;;12.43;;
61250;SDS011;47126;47.508;8.590;2023-04-03T13:15:30;7.85;;;3.88;;
61250;SDS011;47126;47.508;8.590;2023-04-03T13:20:32;6.15;;;3.60;;
61250;SDS011;47126;47.508;8.590;2023-04-03T13:23:08;5.93;;;3.47;;
61250;SDS011;47126;47.508;8.590;2023-04-03T13:25:40;7.25;;;3.92;;
61250;SDS011;47126;47.508;8.590;2023-04-03T13:28:06;8.38;;;3.72;;
61250;SDS011;47126;47.508;8.590;2023-04-03T13:30:34;7.93;;;3.15;;
61250;SDS011;47126;47.508;8.590;2023-04-03T13:33:05;6.18;;;3.50;;
61250;SDS011;47126;47.508;8.590;2023-04-03T13:35:39;10.05;;;3.83;;
61250;SDS011;47126;47.508;8.590;2023-04-03T13:38:19;8.18;;;3.53;;
61250;SDS011;47126;47.508;8.590;2023-04-03T13:40:51;6.20;;;3.72;;
61250;SDS011;47126;47.508;8.590;2023-04-03T13:43:27;6.18;;;3.22;;
61250;SDS011;47126;47.508;8.590;2023-04-03T13:46:04;5.53;;;3.30;;
61250;SDS011;47126;47.508;8.590;2023-04-03T13:54:23;6.93;;;3.60;;
61250;SDS011;47126;47.508;8.590;2023-04-03T13:56:36;5.43;;;3.55;;
61250;SDS011;47126;47.508;8.590;2023-04-03T14:01:33;8.48;;;3.33;;
61250;SDS011;47126;47.508;8.590;2023-04-03T14:04:01;5.47;;;3.40;;
61250;SDS011;47126;47.508;8.590;2023-04-03T14:06:35;5.60;;;3.28;;
61250;SDS011;47126;47.508;8.590;2023-04-03T14:09:01;6.30;;;3.30;;
61250;SDS011;47126;47.508;8.590;2023-04-03T14:11:29;5.20;;;3.15;;
61250;SDS011;47126;47.508;8.590;2023-04-03T14:14:00;6.18;;;3.58;;
61250;SDS011;47126;47.508;8.590;2023-04-03T14:16:30;5.75;;;3.38;;
61250;SDS011;47126;47.508;8.590;2023-04-03T14:18:56;7.22;;;3.75;;
61250;SDS011;47126;47.508;8.590;2023-04-03T14:21:22;5.25;;;3.10;;
61250;SDS011;47126;47.508;8.590;2023-04-03T14:23:51;5.28;;;3.17;;
61250;SDS011;47126;47.508;8.590;2023-04-03T14:26:18;6.75;;;3.47;;
61250;SDS011;47126;47.508;8.590;2023-04-03T14:28:51;3.97;;;2.78;;
61250;SDS011;47126;47.508;8.590;2023-04-03T14:31:21;5.18;;;2.90;;
61250;SDS011;47126;47.508;8.590;2023-04-03T14:33:47;7.40;;;3.03;;
61250;SDS011;47126;47.508;8.590;2023-04-03T14:36:17;6.78;;;4.03;;
61250;SDS011;47126;47.508;8.590;2023-04-03T14:38:44;5.65;;;2.70;;
61250;SDS011;47126;47.508;8.590;2023-04-03T14:41:14;5.43;;;2.88;;
61250;SDS011;47126;47.508;8.590;2023-04-03T14:43:41;5.70;;;3.00;;
61250;SDS011;47126;47.508;8.590;2023-04-03T14:46:14;4.57;;;3.20;;
61250;SDS011;47126;47.508;8.590;2023-04-03T14:48:41;6.85;;;3.13;;
61250;SDS011;47126;47.508;8.590;2023-04-03T14:51:09;5.10;;;2.92;;
61250;SDS011;47126;47.508;8.590;2023-04-03T14:53:36;6.22;;;3.30;;
61250;SDS011;47126;47.508;8.590;2023-04-03T14:56:02;5.30;;;3.17;;
61250;SDS011;47126;47.508;8.590;2023-04-03T14:58:28;5.13;;;3.40;;
61250;SDS011;47126;47.508;8.590;2023-04-03T15:00:54;7.05;;;3.53;;
61250;SDS011;47126;47.508;8.590;2023-04-03T15:03:21;6.90;;;3.88;;
61250;SDS011;47126;47.508;8.590;2023-04-03T15:05:48;5.57;;;3.65;;
61250;SDS011;47126;47.508;8.590;2023-04-03T15:08:19;6.75;;;3.72;;
61250;SDS011;47126;47.508;8.590;2023-04-03T15:10:45;6.35;;;3.70;;
61250;SDS011;47126;47.508;8.590;2023-04-03T15:13:11;6.97;;;3.92;;
61250;SDS011;47126;47.508;8.590;2023-04-03T15:15:38;6.75;;;4.20;;
61250;SDS011;47126;47.508;8.590;2023-04-03T15:18:04;8.57;;;4.00;;
61250;SDS011;47126;47.508;8.590;2023-04-03T15:20:31;7.18;;;4.13;;
61250;SDS011;47126;47.508;8.590;2023-04-03T15:22:58;6.03;;;3.70;;
61250;SDS011;47126;47.508;8.590;2023-04-03T15:25:29;8.10;;;3.75;;
61250;SDS011;47126;47.508;8.590;2023-04-03T15:27:55;7.03;;;3.95;;
61250;SDS011;47126;47.508;8.590;2023-04-03T15:30:22;10.43;;;3.50;;
61250;SDS011;47126;47.508;8.590;2023-04-03T15:32:48;7.70;;;4.00;;
61250;SDS011;47126;47.508;8.590;2023-04-03T15:35:14;6.80;;;3.63;;
61250;SDS011;47126;47.508;8.590;2023-04-03T15:37:40;6.35;;;3.63;;
61250;SDS011;47126;47.508;8.590;2023-04-03T15:40:07;6.93;;;3.97;;
61250;SDS011;47126;47.508;8.590;2023-04-03T15:42:33;6.28;;;3.20;;
61250;SDS011;47126;47.508;8.590;2023-04-03T15:44:59;6.43;;;3.45;;
61250;SDS011;47126;47.508;8.590;2023-04-03T15:47:25;5.25;;;3.25;;
61250;SDS011;47126;47.508;8.590;2023-04-03T15:49:52;5.97;;;3.38;;
61250;SDS011;47126;47.508;8.590;2023-04-03T15:52:19;5.97;;;3.83;;
61250;SDS011;47126;47.508;8.590;2023-04-03T15:54:45;7.00;;;3.80;;
61250;SDS011;47126;47.508;8.590;2023-04-03T15:57:11;6.03;;;3.10;;
61250;SDS011;47126;47.508;8.590;2023-04-03T15:59:37;5.63;;;3.25;;
61250;SDS011;47126;47.508;8.590;2023-04-03T16:02:04;6.57;;;3.65;;
61250;SDS011;47126;47.508;8.590;2023-04-03T16:04:32;9.07;;;3.63;;
61250;SDS011;47126;47.508;8.590;2023-04-03T16:07:00;7.20;;;3.38;;
61250;SDS011;47126;47.508;8.590;2023-04-03T16:09:27;5.35;;;3.10;;
61250;SDS011;47126;47.508;8.590;2023-04-03T16:11:53;6.30;;;3.50;;
61250;SDS011;47126;47.508;8.590;2023-04-03T16:14:19;6.55;;;3.50;;
61250;SDS011;47126;47.508;8.590;2023-04-03T16:16:45;7.10;;;3.65;;
61250;SDS011;47126;47.508;8.590;2023-04-03T16:19:11;6.28;;;3.55;;
61250;SDS011;47126;47.508;8.590;2023-04-03T16:21:38;7.18;;;3.60;;
61250;SDS011;47126;47.508;8.590;2023-04-03T16:24:04;5.72;;;3.08;;
61250;SDS011;47126;47.508;8.590;2023-04-03T16:26:30;6.50;;;3.58;;
61250;SDS011;47126;47.508;8.590;2023-04-03T16:28:56;4.70;;;3.08;;
61250;SDS011;47126;47.508;8.590;2023-04-03T16:31:22;6.28;;;3.50;;
61250;SDS011;47126;47.508;8.590;2023-04-03T16:33:49;7.75;;;3.60;;
61250;SDS011;47126;47.508;8.590;2023-04-03T16:36:15;4.82;;;3.22;;
61250;SDS011;47126;47.508;8.590;2023-04-03T16:38:41;5.85;;;3.40;;
61250;SDS011;47126;47.508;8.590;2023-04-03T16:41:07;6.78;;;3.58;;
61250;SDS011;47126;47.508;8.590;2023-04-03T16:43:33;5.97;;;3.55;;
61250;SDS011;47126;47.508;8.590;2023-04-03T16:46:00;6.43;;;3.67;;